sensor_id;sensor_type;location;lat;lon;timestamp;temperature;humidity
79065;DHT22;68469;51.502;7.462;2023-04-01T00:00:22;19.80;62.50
79065;DHT22;68469;51.502;7.462;2023-04-01T00:02:48;19.80;62.50
79065;DHT22;68469;51.502;7.462;2023-04-01T00:05:13;19.80;62.50
79065;DHT22;68469;51.502;7.462;2023-04-01T00:07:40;19.80;62.50
79065;DHT22;68469;51.502;7.462;2023-04-01T00:10:07;19.80;62.40
79065;DHT22;68469;51.502;7.462;2023-04-01T00:12:33;19.80;62.40
79065;DHT22;68469;51.502;7.462;2023-04-01T00:14:59;19.80;62.50
79065;DHT22;68469;51.502;7.462;2023-04-01T00:17:25;19.80;62.40
79065;DHT22;68469;51.502;7.462;2023-04-01T00:19:51;19.80;62.40
79065;DHT22;68469;51.502;7.462;2023-04-01T00:22:17;19.80;62.50
79065;DHT22;68469;51.502;7.462;2023-04-01T00:24:42;19.80;62.50
79065;DHT22;68469;51.502;7.462;2023-04-01T00:27:08;19.80;62.50
79065;DHT22;68469;51.502;7.462;2023-04-01T00:29:34;19.80;62.50
79065;DHT22;68469;51.502;7.462;2023-04-01T00:32:00;19.80;62.40
79065;DHT22;68469;51.502;7.462;2023-04-01T00:34:26;19.80;62.40
79065;DHT22;68469;51.502;7.462;2023-04-01T00:36:52;19.80;62.50
79065;DHT22;68469;51.502;7.462;2023-04-01T00:39:19;19.80;62.40
79065;DHT22;68469;51.502;7.462;2023-04-01T00:41:54;19.80;62.40
79065;DHT22;68469;51.502;7.462;2023-04-01T00:44:26;19.80;62.40
79065;DHT22;68469;51.502;7.462;2023-04-01T00:46:52;19.80;62.40
79065;DHT22;68469;51.502;7.462;2023-04-01T00:49:19;19.80;62.50
79065;DHT22;68469;51.502;7.462;2023-04-01T00:51:47;19.80;62.50
79065;DHT22;68469;51.502;7.462;2023-04-01T00:54:16;19.80;62.40
79065;DHT22;68469;51.502;7.462;2023-04-01T00:56:49;19.80;62.40
79065;DHT22;68469;51.502;7.462;2023-04-01T00:59:27;19.80;62.50
79065;DHT22;68469;51.502;7.462;2023-04-01T01:01:54;19.80;62.40
79065;DHT22;68469;51.502;7.462;2023-04-01T01:10:10;19.70;62.40
79065;DHT22;68469;51.502;7.462;2023-04-01T01:12:54;19.80;62.40
79065;DHT22;68469;51.502;7.462;2023-04-01T01:18:09;19.80;62.50
79065;DHT22;68469;51.502;7.462;2023-04-01T01:27:09;19.80;62.40
79065;DHT22;68469;51.502;7.462;2023-04-01T01:35:10;19.80;62.50
79065;DHT22;68469;51.502;7.462;2023-04-01T01:37:38;19.80;62.50
79065;DHT22;68469;51.502;7.462;2023-04-01T01:40:07;19.80;62.40
79065;DHT22;68469;51.502;7.462;2023-04-01T01:42:37;19.80;62.50
79065;DHT22;68469;51.502;7.462;2023-04-01T01:45:05;19.80;62.50
79065;DHT22;68469;51.502;7.462;2023-04-01T01:47:33;19.80;62.40
79065;DHT22;68469;51.502;7.462;2023-04-01T01:50:00;19.80;62.50
79065;DHT22;68469;51.502;7.462;2023-04-01T01:52:28;19.80;62.50
79065;DHT22;68469;51.502;7.462;2023-04-01T01:54:56;19.80;62.50
79065;DHT22;68469;51.502;7.462;2023-04-01T01:57:34;19.80;62.50
79065;DHT22;68469;51.502;7.462;2023-04-01T02:00:06;19.80;62.60
79065;DHT22;68469;51.502;7.462;2023-04-01T02:02:42;19.80;62.60
79065;DHT22;68469;51.502;7.462;2023-04-01T02:05:23;19.80;62.50
79065;DHT22;68469;51.502;7.462;2023-04-01T02:07:55;19.80;62.60
79065;DHT22;68469;51.502;7.462;2023-04-01T02:10:25;19.80;62.50
79065;DHT22;68469;51.502;7.462;2023-04-01T02:12:51;19.80;62.50
79065;DHT22;68469;51.502;7.462;2023-04-01T02:15:20;19.80;62.50
79065;DHT22;68469;51.502;7.462;2023-04-01T02:17:47;19.80;62.50
79065;DHT22;68469;51.502;7.462;2023-04-01T02:20:20;19.70;62.40
79065;DHT22;68469;51.502;7.462;2023-04-01T02:22:50;19.80;62.50
79065;DHT22;68469;51.502;7.462;2023-04-01T02:25:29;19.80;62.50
79065;DHT22;68469;51.502;7.462;2023-04-01T02:27:57;19.80;62.50
79065;DHT22;68469;51.502;7.462;2023-04-01T02:30:25;19.80;62.50
79065;DHT22;68469;51.502;7.462;2023-04-01T02:32:53;19.70;62.50
79065;DHT22;68469;51.502;7.462;2023-04-01T02:35:19;19.70;62.40
79065;DHT22;68469;51.502;7.462;2023-04-01T02:37:46;19.80;62.50
79065;DHT22;68469;51.502;7.462;2023-04-01T02:40:15;19.80;62.50
79065;DHT22;68469;51.502;7.462;2023-04-01T02:42:41;19.80;62.50
79065;DHT22;68469;51.502;7.462;2023-04-01T02:45:07;19.80;62.50
79065;DHT22;68469;51.502;7.462;2023-04-01T02:47:33;19.80;62.40
79065;DHT22;68469;51.502;7.462;2023-04-01T02:49:59;19.70;62.40
79065;DHT22;68469;51.502;7.462;2023-04-01T02:52:25;19.80;63.10
79065;DHT22;68469;51.502;7.462;2023-04-01T02:54:51;19.80;62.50
79065;DHT22;68469;51.502;7.462;2023-04-01T02:57:17;19.80;62.50
79065;DHT22;68469;51.502;7.462;2023-04-01T02:59:42;19.80;62.50
79065;DHT22;68469;51.502;7.462;2023-04-01T03:02:08;19.70;62.50
79065;DHT22;68469;51.502;7.462;2023-04-01T03:04:33;19.70;62.50
79065;DHT22;68469;51.502;7.462;2023-04-01T03:06:59;19.70;62.50
79065;DHT22;68469;51.502;7.462;2023-04-01T03:09:25;19.70;62.50
79065;DHT22;68469;51.502;7.462;2023-04-01T03:11:50;19.70;62.50
79065;DHT22;68469;51.502;7.462;2023-04-01T03:14:16;19.70;62.50
79065;DHT22;68469;51.502;7.462;2023-04-01T03:16:42;19.70;62.50
79065;DHT22;68469;51.502;7.462;2023-04-01T03:19:07;19.70;62.50
79065;DHT22;68469;51.502;7.462;2023-04-01T03:21:33;19.70;62.60
79065;DHT22;68469;51.502;7.462;2023-04-01T03:23:58;19.70;63.20
79065;DHT22;68469;51.502;7.462;2023-04-01T03:26:24;19.70;62.50
79065;DHT22;68469;51.502;7.462;2023-04-01T03:28:52;19.70;62.50
79065;DHT22;68469;51.502;7.462;2023-04-01T03:31:18;19.70;62.60
79065;DHT22;68469;51.502;7.462;2023-04-01T03:33:44;19.70;62.50
79065;DHT22;68469;51.502;7.462;2023-04-01T03:36:10;19.70;62.50
79065;DHT22;68469;51.502;7.462;2023-04-01T03:38:38;19.70;62.60
79065;DHT22;68469;51.502;7.462;2023-04-01T03:41:05;19.70;62.60
79065;DHT22;68469;51.502;7.462;2023-04-01T03:43:30;19.70;62.50
79065;DHT22;68469;51.502;7.462;2023-04-01T03:45:56;19.70;62.60
79065;DHT22;68469;51.502;7.462;2023-04-01T03:48:23;19.70;62.60
79065;DHT22;68469;51.502;7.462;2023-04-01T03:50:49;19.70;62.50
79065;DHT22;68469;51.502;7.462;2023-04-01T03:53:14;19.70;62.50
79065;DHT22;68469;51.502;7.462;2023-04-01T03:55:41;19.70;62.60
79065;DHT22;68469;51.502;7.462;2023-04-01T03:58:07;19.70;62.50
79065;DHT22;68469;51.502;7.462;2023-04-01T04:00:33;19.70;62.60
79065;DHT22;68469;51.502;7.462;2023-04-01T04:02:59;19.70;62.50
79065;DHT22;68469;51.502;7.462;2023-04-01T04:05:26;19.70;62.50
79065;DHT22;68469;51.502;7.462;2023-04-01T04:07:52;19.70;62.60
79065;DHT22;68469;51.502;7.462;2023-04-01T04:10:18;19.70;62.60
79065;DHT22;68469;51.502;7.462;2023-04-01T04:12:43;19.70;62.50
79065;DHT22;68469;51.502;7.462;2023-04-01T04:15:10;19.70;62.60
79065;DHT22;68469;51.502;7.462;2023-04-01T04:17:35;19.70;62.60
79065;DHT22;68469;51.502;7.462;2023-04-01T04:20:01;19.70;62.60
79065;DHT22;68469;51.502;7.462;2023-04-01T04:22:27;19.70;62.60
79065;DHT22;68469;51.502;7.462;2023-04-01T04:24:52;19.70;62.60
79065;DHT22;68469;51.502;7.462;2023-04-01T04:27:18;19.70;62.50
79065;DHT22;68469;51.502;7.462;2023-04-01T04:29:44;19.70;62.60
79065;DHT22;68469;51.502;7.462;2023-04-01T04:32:09;19.70;62.60
79065;DHT22;68469;51.502;7.462;2023-04-01T04:34:35;19.70;62.60
79065;DHT22;68469;51.502;7.462;2023-04-01T04:37:01;19.70;62.60
79065;DHT22;68469;51.502;7.462;2023-04-01T04:39:26;19.70;62.60
79065;DHT22;68469;51.502;7.462;2023-04-01T04:41:52;19.70;62.60
79065;DHT22;68469;51.502;7.462;2023-04-01T04:44:17;19.70;62.60
79065;DHT22;68469;51.502;7.462;2023-04-01T04:46:43;19.70;62.60
79065;DHT22;68469;51.502;7.462;2023-04-01T04:49:09;19.70;62.60
79065;DHT22;68469;51.502;7.462;2023-04-01T04:51:34;19.70;62.60
79065;DHT22;68469;51.502;7.462;2023-04-01T04:54:02;19.70;62.60
79065;DHT22;68469;51.502;7.462;2023-04-01T04:56:27;19.70;62.60
79065;DHT22;68469;51.502;7.462;2023-04-01T04:58:53;19.70;62.60
79065;DHT22;68469;51.502;7.462;2023-04-01T05:01:20;19.70;62.70
79065;DHT22;68469;51.502;7.462;2023-04-01T05:03:45;19.70;62.60
79065;DHT22;68469;51.502;7.462;2023-04-01T05:06:13;19.70;62.60
79065;DHT22;68469;51.502;7.462;2023-04-01T05:08:39;19.70;62.60
79065;DHT22;68469;51.502;7.462;2023-04-01T05:11:10;19.70;62.60
79065;DHT22;68469;51.502;7.462;2023-04-01T05:13:37;19.70;62.60
79065;DHT22;68469;51.502;7.462;2023-04-01T05:16:03;19.70;62.60
79065;DHT22;68469;51.502;7.462;2023-04-01T05:18:28;19.70;62.60
79065;DHT22;68469;51.502;7.462;2023-04-01T05:20:54;19.70;62.70
79065;DHT22;68469;51.502;7.462;2023-04-01T05:23:21;19.70;62.70
79065;DHT22;68469;51.502;7.462;2023-04-01T05:25:48;19.70;62.60
79065;DHT22;68469;51.502;7.462;2023-04-01T05:28:15;19.70;62.60
79065;DHT22;68469;51.502;7.462;2023-04-01T05:30:42;19.70;62.60
79065;DHT22;68469;51.502;7.462;2023-04-01T05:33:09;19.70;62.60
79065;DHT22;68469;51.502;7.462;2023-04-01T05:35:35;19.70;62.60
79065;DHT22;68469;51.502;7.462;2023-04-01T05:38:01;19.70;62.60
79065;DHT22;68469;51.502;7.462;2023-04-01T05:40:27;19.70;62.60
79065;DHT22;68469;51.502;7.462;2023-04-01T05:42:53;19.70;62.60
79065;DHT22;68469;51.502;7.462;2023-04-01T05:45:18;19.70;62.90
79065;DHT22;68469;51.502;7.462;2023-04-01T05:47:44;19.70;62.60
79065;DHT22;68469;51.502;7.462;2023-04-01T05:50:10;19.70;62.50
79065;DHT22;68469;51.502;7.462;2023-04-01T05:52:36;19.70;62.60
79065;DHT22;68469;51.502;7.462;2023-04-01T05:55:02;19.70;62.60
79065;DHT22;68469;51.502;7.462;2023-04-01T05:57:28;19.70;62.60
79065;DHT22;68469;51.502;7.462;2023-04-01T05:59:54;19.70;62.60
79065;DHT22;68469;51.502;7.462;2023-04-01T06:02:19;19.70;62.60
79065;DHT22;68469;51.502;7.462;2023-04-01T06:04:45;19.70;62.70
79065;DHT22;68469;51.502;7.462;2023-04-01T06:07:16;19.70;62.60
79065;DHT22;68469;51.502;7.462;2023-04-01T06:09:43;19.70;62.70
79065;DHT22;68469;51.502;7.462;2023-04-01T06:12:38;19.70;62.70
79065;DHT22;68469;51.502;7.462;2023-04-01T06:15:25;19.70;62.60
79065;DHT22;68469;51.502;7.462;2023-04-01T06:21:03;19.70;62.70
79065;DHT22;68469;51.502;7.462;2023-04-01T06:32:13;19.70;62.60
79065;DHT22;68469;51.502;7.462;2023-04-01T06:54:18;19.70;62.40
79065;DHT22;68469;51.502;7.462;2023-04-01T06:56:51;19.70;62.40
79065;DHT22;68469;51.502;7.462;2023-04-01T06:59:37;19.70;62.20
79065;DHT22;68469;51.502;7.462;2023-04-01T07:04:57;19.70;62.20
79065;DHT22;68469;51.502;7.462;2023-04-01T07:07:35;19.70;62.20
79065;DHT22;68469;51.502;7.462;2023-04-01T07:10:09;19.70;62.20
79065;DHT22;68469;51.502;7.462;2023-04-01T07:12:45;19.80;62.20
79065;DHT22;68469;51.502;7.462;2023-04-01T07:15:46;19.80;62.10
79065;DHT22;68469;51.502;7.462;2023-04-01T07:18:19;19.80;62.10
79065;DHT22;68469;51.502;7.462;2023-04-01T07:20:48;19.80;62.00
79065;DHT22;68469;51.502;7.462;2023-04-01T07:23:36;19.80;61.90
79065;DHT22;68469;51.502;7.462;2023-04-01T07:26:29;19.80;61.80
79065;DHT22;68469;51.502;7.462;2023-04-01T07:28:56;19.80;61.80
79065;DHT22;68469;51.502;7.462;2023-04-01T07:31:50;19.80;61.50
79065;DHT22;68469;51.502;7.462;2023-04-01T07:34:26;19.80;62.20
79065;DHT22;68469;51.502;7.462;2023-04-01T07:37:04;19.80;61.60
79065;DHT22;68469;51.502;7.462;2023-04-01T07:39:54;19.90;62.00
79065;DHT22;68469;51.502;7.462;2023-04-01T07:42:37;19.90;61.90
79065;DHT22;68469;51.502;7.462;2023-04-01T07:47:53;20.00;61.80
79065;DHT22;68469;51.502;7.462;2023-04-01T07:50:33;20.00;62.00
79065;DHT22;68469;51.502;7.462;2023-04-01T07:55:50;20.00;63.20
79065;DHT22;68469;51.502;7.462;2023-04-01T07:58:45;20.10;62.30
79065;DHT22;68469;51.502;7.462;2023-04-01T08:01:30;20.10;63.70
79065;DHT22;68469;51.502;7.462;2023-04-01T08:15:12;20.20;64.90
79065;DHT22;68469;51.502;7.462;2023-04-01T08:20:46;20.30;62.00
79065;DHT22;68469;51.502;7.462;2023-04-01T08:23:19;20.30;62.20
79065;DHT22;68469;51.502;7.462;2023-04-01T08:26:02;20.40;62.60
79065;DHT22;68469;51.502;7.462;2023-04-01T08:28:43;20.30;61.30
79065;DHT22;68469;51.502;7.462;2023-04-01T08:31:22;20.40;61.50
79065;DHT22;68469;51.502;7.462;2023-04-01T08:33:49;20.40;61.40
79065;DHT22;68469;51.502;7.462;2023-04-01T08:36:28;20.40;61.30
79065;DHT22;68469;51.502;7.462;2023-04-01T08:38:59;20.30;61.10
79065;DHT22;68469;51.502;7.462;2023-04-01T08:42:25;20.40;61.10
79065;DHT22;68469;51.502;7.462;2023-04-01T08:48:00;20.30;61.40
79065;DHT22;68469;51.502;7.462;2023-04-01T08:59:16;20.30;61.60
79065;DHT22;68469;51.502;7.462;2023-04-01T09:09:57;20.30;61.70
79065;DHT22;68469;51.502;7.462;2023-04-01T09:15:48;20.30;62.10
79065;DHT22;68469;51.502;7.462;2023-04-01T09:21:10;20.30;62.20
79065;DHT22;68469;51.502;7.462;2023-04-01T09:34:39;20.40;62.30
79065;DHT22;68469;51.502;7.462;2023-04-01T09:40:15;20.30;62.30
79065;DHT22;68469;51.502;7.462;2023-04-01T09:48:37;20.30;62.70
79065;DHT22;68469;51.502;7.462;2023-04-01T09:51:36;20.30;62.70
79065;DHT22;68469;51.502;7.462;2023-04-01T10:11:26;20.30;62.40
79065;DHT22;68469;51.502;7.462;2023-04-01T10:20:08;20.30;62.70
79065;DHT22;68469;51.502;7.462;2023-04-01T10:25:46;20.30;62.70
79065;DHT22;68469;51.502;7.462;2023-04-01T10:36:57;20.30;63.50
79065;DHT22;68469;51.502;7.462;2023-04-01T10:42:14;20.30;62.30
79065;DHT22;68469;51.502;7.462;2023-04-01T10:45:40;20.20;61.40
79065;DHT22;68469;51.502;7.462;2023-04-01T10:56:40;20.20;62.30
79065;DHT22;68469;51.502;7.462;2023-04-01T11:05:08;20.20;62.80
79065;DHT22;68469;51.502;7.462;2023-04-01T11:14:07;20.20;63.10
79065;DHT22;68469;51.502;7.462;2023-04-01T11:21:47;20.10;63.10
79065;DHT22;68469;51.502;7.462;2023-04-01T11:30:20;20.10;63.30
79065;DHT22;68469;51.502;7.462;2023-04-01T11:33:02;20.10;63.30
79065;DHT22;68469;51.502;7.462;2023-04-01T11:51:04;20.10;63.30
79065;DHT22;68469;51.502;7.462;2023-04-01T11:57:05;20.10;63.10
79065;DHT22;68469;51.502;7.462;2023-04-01T12:03:30;20.10;63.30
79065;DHT22;68469;51.502;7.462;2023-04-01T12:05:41;20.10;63.40
79065;DHT22;68469;51.502;7.462;2023-04-01T12:16:11;20.10;63.50
79065;DHT22;68469;51.502;7.462;2023-04-01T12:24:15;20.10;63.40
79065;DHT22;68469;51.502;7.462;2023-04-01T12:26:55;20.10;63.40
79065;DHT22;68469;51.502;7.462;2023-04-01T12:30:05;20.10;63.40
79065;DHT22;68469;51.502;7.462;2023-04-01T12:32:47;20.10;63.40
79065;DHT22;68469;51.502;7.462;2023-04-01T12:35:37;20.10;63.50
79065;DHT22;68469;51.502;7.462;2023-04-01T12:41:09;20.10;63.40
79065;DHT22;68469;51.502;7.462;2023-04-01T12:57:28;20.10;63.60
79065;DHT22;68469;51.502;7.462;2023-04-01T13:00:14;20.10;63.50
79065;DHT22;68469;51.502;7.462;2023-04-01T13:03:03;20.10;63.40
79065;DHT22;68469;51.502;7.462;2023-04-01T13:05:41;20.10;63.50
79065;DHT22;68469;51.502;7.462;2023-04-01T13:08:39;20.10;63.50
79065;DHT22;68469;51.502;7.462;2023-04-01T13:11:20;20.10;63.70
79065;DHT22;68469;51.502;7.462;2023-04-01T13:16:31;20.10;63.60
79065;DHT22;68469;51.502;7.462;2023-04-01T13:22:09;20.10;63.50
79065;DHT22;68469;51.502;7.462;2023-04-01T13:27:40;20.10;63.60
79065;DHT22;68469;51.502;7.462;2023-04-01T13:30:26;20.20;63.50
79065;DHT22;68469;51.502;7.462;2023-04-01T13:33:24;20.10;63.40
79065;DHT22;68469;51.502;7.462;2023-04-01T13:38:56;20.10;63.40
79065;DHT22;68469;51.502;7.462;2023-04-01T13:41:38;20.10;63.40
79065;DHT22;68469;51.502;7.462;2023-04-01T13:47:23;20.10;63.50
79065;DHT22;68469;51.502;7.462;2023-04-01T13:58:30;20.10;63.50
79065;DHT22;68469;51.502;7.462;2023-04-01T14:01:03;20.10;63.60
79065;DHT22;68469;51.502;7.462;2023-04-01T14:04:34;20.10;63.50
79065;DHT22;68469;51.502;7.462;2023-04-01T14:07:18;20.10;63.50
79065;DHT22;68469;51.502;7.462;2023-04-01T14:15:53;20.10;63.50
79065;DHT22;68469;51.502;7.462;2023-04-01T14:18:42;20.10;63.50
79065;DHT22;68469;51.502;7.462;2023-04-01T14:30:07;20.10;64.00
79065;DHT22;68469;51.502;7.462;2023-04-01T14:40:45;20.20;64.10
79065;DHT22;68469;51.502;7.462;2023-04-01T14:43:36;20.20;64.40
79065;DHT22;68469;51.502;7.462;2023-04-01T14:51:33;19.90;62.20
79065;DHT22;68469;51.502;7.462;2023-04-01T14:56:40;19.80;61.70
79065;DHT22;68469;51.502;7.462;2023-04-01T14:59:13;19.80;62.20
79065;DHT22;68469;51.502;7.462;2023-04-01T15:01:58;19.80;62.70
79065;DHT22;68469;51.502;7.462;2023-04-01T15:04:58;19.90;63.30
79065;DHT22;68469;51.502;7.462;2023-04-01T15:08:00;19.90;63.80
79065;DHT22;68469;51.502;7.462;2023-04-01T15:35:57;20.00;64.40
79065;DHT22;68469;51.502;7.462;2023-04-01T15:38:30;20.00;64.50
79065;DHT22;68469;51.502;7.462;2023-04-01T15:41:19;20.00;64.40
79065;DHT22;68469;51.502;7.462;2023-04-01T15:43:49;20.00;64.20
79065;DHT22;68469;51.502;7.462;2023-04-01T15:46:46;20.00;64.60
79065;DHT22;68469;51.502;7.462;2023-04-01T15:49:28;20.00;64.40
79065;DHT22;68469;51.502;7.462;2023-04-01T16:09:06;19.90;65.90
79065;DHT22;68469;51.502;7.462;2023-04-01T16:20:02;19.90;66.90
79065;DHT22;68469;51.502;7.462;2023-04-01T16:22:38;19.90;66.60
79065;DHT22;68469;51.502;7.462;2023-04-01T16:25:20;19.90;67.10
79065;DHT22;68469;51.502;7.462;2023-04-01T16:30:36;19.90;66.80
79065;DHT22;68469;51.502;7.462;2023-04-01T16:33:10;19.90;67.40
79065;DHT22;68469;51.502;7.462;2023-04-01T16:35:52;19.90;66.80
79065;DHT22;68469;51.502;7.462;2023-04-01T16:38:26;19.90;67.50
79065;DHT22;68469;51.502;7.462;2023-04-01T16:43:53;19.90;67.40
79065;DHT22;68469;51.502;7.462;2023-04-01T16:47:06;19.90;68.50
79065;DHT22;68469;51.502;7.462;2023-04-01T16:49:44;19.90;67.20
79065;DHT22;68469;51.502;7.462;2023-04-01T17:00:55;19.80;67.70
79065;DHT22;68469;51.502;7.462;2023-04-01T17:03:13;19.90;67.40
79065;DHT22;68469;51.502;7.462;2023-04-01T17:09:02;19.80;67.90
79065;DHT22;68469;51.502;7.462;2023-04-01T17:14:17;19.80;67.80
79065;DHT22;68469;51.502;7.462;2023-04-01T17:24:41;19.80;67.90
79065;DHT22;68469;51.502;7.462;2023-04-01T17:30:38;19.80;68.20
79065;DHT22;68469;51.502;7.462;2023-04-01T17:36:25;19.80;68.60
79065;DHT22;68469;51.502;7.462;2023-04-01T17:44:25;19.80;68.20
79065;DHT22;68469;51.502;7.462;2023-04-01T17:57:46;19.80;67.70
79065;DHT22;68469;51.502;7.462;2023-04-01T18:03:24;19.80;68.60
79065;DHT22;68469;51.502;7.462;2023-04-01T18:06:10;19.80;68.30
79065;DHT22;68469;51.502;7.462;2023-04-01T18:08:58;19.80;68.20
79065;DHT22;68469;51.502;7.462;2023-04-01T18:17:32;19.80;68.50
79065;DHT22;68469;51.502;7.462;2023-04-01T18:22:47;19.80;68.30
79065;DHT22;68469;51.502;7.462;2023-04-01T18:25:22;19.80;68.30
79065;DHT22;68469;51.502;7.462;2023-04-01T18:30:32;19.80;67.90
79065;DHT22;68469;51.502;7.462;2023-04-01T18:38:57;19.80;68.80
79065;DHT22;68469;51.502;7.462;2023-04-01T18:44:31;19.80;68.60
79065;DHT22;68469;51.502;7.462;2023-04-01T18:52:44;19.80;68.10
79065;DHT22;68469;51.502;7.462;2023-04-01T18:55:42;19.70;68.50
79065;DHT22;68469;51.502;7.462;2023-04-01T19:01:14;19.80;68.80
79065;DHT22;68469;51.502;7.462;2023-04-01T19:06:58;19.80;68.20
79065;DHT22;68469;51.502;7.462;2023-04-01T19:09:45;19.80;68.30
79065;DHT22;68469;51.502;7.462;2023-04-01T19:17:54;19.80;68.80
79065;DHT22;68469;51.502;7.462;2023-04-01T19:20:38;19.70;68.70
79065;DHT22;68469;51.502;7.462;2023-04-01T19:25:56;19.80;68.80
79065;DHT22;68469;51.502;7.462;2023-04-01T19:29:39;19.70;68.40
79065;DHT22;68469;51.502;7.462;2023-04-01T19:31:45;19.80;68.60
79065;DHT22;68469;51.502;7.462;2023-04-01T19:51:06;19.80;68.30
79065;DHT22;68469;51.502;7.462;2023-04-01T19:53:48;19.70;68.30
79065;DHT22;68469;51.502;7.462;2023-04-01T19:56:22;19.70;68.60
79065;DHT22;68469;51.502;7.462;2023-04-01T19:58:54;19.70;68.30
79065;DHT22;68469;51.502;7.462;2023-04-01T20:01:30;19.70;68.80
79065;DHT22;68469;51.502;7.462;2023-04-01T20:04:03;19.70;69.00
79065;DHT22;68469;51.502;7.462;2023-04-01T20:06:42;19.70;68.80
79065;DHT22;68469;51.502;7.462;2023-04-01T20:12:29;19.70;68.90
79065;DHT22;68469;51.502;7.462;2023-04-01T20:15:02;19.70;68.60
79065;DHT22;68469;51.502;7.462;2023-04-01T20:22:55;19.70;68.40
79065;DHT22;68469;51.502;7.462;2023-04-01T20:28:04;19.70;68.50
79065;DHT22;68469;51.502;7.462;2023-04-01T20:42:40;19.70;68.70
79065;DHT22;68469;51.502;7.462;2023-04-01T20:45:10;19.70;68.10
79065;DHT22;68469;51.502;7.462;2023-04-01T20:50:29;19.70;68.10
79065;DHT22;68469;51.502;7.462;2023-04-01T20:58:28;19.70;68.40
79065;DHT22;68469;51.502;7.462;2023-04-01T21:04:09;19.70;68.30
79065;DHT22;68469;51.502;7.462;2023-04-01T21:06:40;19.70;68.10
79065;DHT22;68469;51.502;7.462;2023-04-01T21:14:55;19.70;68.50
79065;DHT22;68469;51.502;7.462;2023-04-01T21:17:37;19.70;67.70
79065;DHT22;68469;51.502;7.462;2023-04-01T21:37:22;19.80;67.50
79065;DHT22;68469;51.502;7.462;2023-04-01T21:40:26;19.70;67.70
79065;DHT22;68469;51.502;7.462;2023-04-01T21:48:37;19.70;67.90
79065;DHT22;68469;51.502;7.462;2023-04-01T21:56:25;19.70;67.50
79065;DHT22;68469;51.502;7.462;2023-04-01T22:04:49;19.70;67.50
79065;DHT22;68469;51.502;7.462;2023-04-01T22:07:19;19.70;68.10
79065;DHT22;68469;51.502;7.462;2023-04-01T22:15:41;19.70;67.40
79065;DHT22;68469;51.502;7.462;2023-04-01T22:17:48;19.70;67.50
79065;DHT22;68469;51.502;7.462;2023-04-01T22:20:33;19.70;67.60
79065;DHT22;68469;51.502;7.462;2023-04-01T22:25:56;19.70;67.60
79065;DHT22;68469;51.502;7.462;2023-04-01T22:31:10;19.70;67.40
79065;DHT22;68469;51.502;7.462;2023-04-01T22:39:26;19.70;67.40
79065;DHT22;68469;51.502;7.462;2023-04-01T22:44:56;19.70;67.40
79065;DHT22;68469;51.502;7.462;2023-04-01T22:47:57;19.70;67.40
79065;DHT22;68469;51.502;7.462;2023-04-01T22:53:44;19.70;67.60
79065;DHT22;68469;51.502;7.462;2023-04-01T22:56:30;19.70;67.40
79065;DHT22;68469;51.502;7.462;2023-04-01T22:59:00;19.70;67.40
79065;DHT22;68469;51.502;7.462;2023-04-01T23:01:32;19.70;67.50
79065;DHT22;68469;51.502;7.462;2023-04-01T23:04:03;19.70;67.40
79065;DHT22;68469;51.502;7.462;2023-04-01T23:06:43;19.70;67.40
79065;DHT22;68469;51.502;7.462;2023-04-01T23:09:19;19.70;67.50
79065;DHT22;68469;51.502;7.462;2023-04-01T23:11:55;19.60;67.60
79065;DHT22;68469;51.502;7.462;2023-04-01T23:17:31;19.60;67.30
79065;DHT22;68469;51.502;7.462;2023-04-01T23:23:08;19.60;67.30
79065;DHT22;68469;51.502;7.462;2023-04-01T23:35:54;19.60;67.40
79065;DHT22;68469;51.502;7.462;2023-04-01T23:38:22;19.60;67.40
79065;DHT22;68469;51.502;7.462;2023-04-01T23:40:50;19.60;67.30
79065;DHT22;68469;51.502;7.462;2023-04-01T23:43:36;19.60;67.50
79065;DHT22;68469;51.502;7.462;2023-04-01T23:46:04;19.60;67.30
79065;DHT22;68469;51.502;7.462;2023-04-01T23:48:43;19.60;67.30
79065;DHT22;68469;51.502;7.462;2023-04-01T23:51:21;19.60;67.20
79065;DHT22;68469;51.502;7.462;2023-04-01T23:53:54;19.60;67.30
79065;DHT22;68469;51.502;7.462;2023-04-01T23:56:21;19.60;67.20
79065;DHT22;68469;51.502;7.462;2023-04-01T23:58:52;19.60;67.30
